Time;durP1;ratioP1;P1;durP2;ratioP2;P2;SDS_P1;SDS_P2;PMS_P1;PMS_P2;Temp;Humidity;BMP_temperature;BMP_pressure;BME280_temperature;BME280_humidity;BME280_pressure;Samples;Min_cycle;Max_cycle;Signal;HPM_P1;HPM_P2
2021/11/11 00:00:33;;;;;;;104.55;54.72;;;9.40;99.90;;;;;;5115013;28;20441;-74
2021/11/11 00:03:00;;;;;;;96.25;51.70;;;9.50;99.90;;;;;;5113909;28;20095;-74
2021/11/11 00:05:26;;;;;;;107.47;54.17;;;9.50;99.90;;;;;;5115064;28;20378;-74
2021/11/11 00:07:52;;;;;;;96.28;52.92;;;9.50;99.90;;;;;;5114823;28;20036;-74
2021/11/11 00:10:20;;;;;;;96.90;51.55;;;9.40;99.90;;;;;;5113389;28;20407;-74
2021/11/11 00:12:48;;;;;;;99.97;55.17;;;9.50;99.90;;;;;;5114777;27;20046;-74
2021/11/11 00:15:16;;;;;;;100.32;54.22;;;9.50;99.90;;;;;;5114675;28;20039;-73
2021/11/11 00:17:43;;;;;;;115.00;57.13;;;9.40;99.90;;;;;;5114423;28;20039;-73
2021/11/11 00:20:10;;;;;;;90.70;51.95;;;9.50;99.90;;;;;;5113191;28;20048;-74
2021/11/11 00:22:38;;;;;;;99.40;50.92;;;9.50;99.90;;;;;;5113196;28;20044;-74
2021/11/11 00:25:05;;;;;;;104.00;54.10;;;9.50;99.90;;;;;;5114855;28;20044;-73
2021/11/11 00:27:30;;;;;;;106.95;54.35;;;9.50;99.90;;;;;;5113487;28;20095;-74
2021/11/11 00:29:56;;;;;;;99.55;55.17;;;9.40;99.90;;;;;;5114068;28;20063;-74
2021/11/11 00:32:22;;;;;;;109.30;56.13;;;9.40;99.90;;;;;;5112493;28;20044;-74
2021/11/11 00:34:51;;;;;;;101.93;55.05;;;9.50;99.90;;;;;;5114268;28;20442;-73
2021/11/11 00:37:18;;;;;;;85.53;50.72;;;9.40;99.90;;;;;;5114601;28;20140;-73
2021/11/11 00:39:44;;;;;;;96.63;53.60;;;9.40;99.90;;;;;;5113873;28;20051;-73
2021/11/11 00:42:10;;;;;;;95.45;53.28;;;9.40;99.90;;;;;;5114221;28;20404;-73
2021/11/11 00:44:36;;;;;;;98.65;52.58;;;9.40;99.90;;;;;;5114415;28;20043;-74
2021/11/11 00:47:02;;;;;;;98.53;53.10;;;9.40;99.90;;;;;;5112824;28;20042;-74
2021/11/11 00:49:28;;;;;;;91.63;49.00;;;9.40;99.90;;;;;;5114115;28;20498;-74
2021/11/11 00:51:53;;;;;;;91.90;49.28;;;9.50;99.90;;;;;;5114257;28;20039;-72
2021/11/11 00:54:19;;;;;;;93.00;51.17;;;9.50;99.90;;;;;;5113519;28;20495;-74
2021/11/11 00:56:45;;;;;;;98.97;49.47;;;9.50;99.90;;;;;;5114577;28;20027;-74
2021/11/11 00:59:11;;;;;;;83.43;45.45;;;9.50;99.90;;;;;;5113475;28;20043;-74
2021/11/11 01:01:37;;;;;;;85.30;45.25;;;9.50;99.90;;;;;;5114040;28;20050;-73
2021/11/11 01:04:03;;;;;;;87.65;43.97;;;9.50;99.90;;;;;;5113943;28;20043;-74
2021/11/11 01:06:29;;;;;;;82.03;45.35;;;9.50;99.90;;;;;;5095590;28;20031;-74
2021/11/11 01:08:56;;;;;;;81.03;44.53;;;9.50;99.90;;;;;;5112584;28;20047;-74
2021/11/11 01:11:23;;;;;;;82.50;45.20;;;9.50;99.90;;;;;;5113037;28;20046;-74
2021/11/11 01:13:48;;;;;;;76.88;43.53;;;9.40;99.90;;;;;;5113650;28;20062;-74
2021/11/11 01:16:14;;;;;;;76.90;45.40;;;9.50;99.90;;;;;;5114089;28;20460;-74
2021/11/11 01:18:40;;;;;;;74.80;41.72;;;9.40;99.90;;;;;;5113376;28;20047;-74
2021/11/11 01:21:07;;;;;;;79.07;42.03;;;9.40;99.90;;;;;;5113963;28;20040;-74
2021/11/11 01:23:33;;;;;;;90.32;42.53;;;9.40;99.90;;;;;;5112457;28;20063;-73
2021/11/11 01:25:59;;;;;;;75.38;41.25;;;9.50;99.90;;;;;;5113918;28;20035;-74
2021/11/11 01:28:26;;;;;;;79.35;42.58;;;9.50;99.90;;;;;;5112403;28;20047;-74
2021/11/11 01:30:52;;;;;;;78.72;40.83;;;9.40;99.90;;;;;;5113625;28;20384;-73
2021/11/11 01:33:18;;;;;;;74.20;41.50;;;9.40;99.90;;;;;;5113495;28;20039;-73
2021/11/11 01:35:44;;;;;;;75.60;42.05;;;9.40;99.90;;;;;;5112514;28;20559;-74
2021/11/11 01:38:09;;;;;;;71.00;37.92;;;9.40;99.90;;;;;;5113551;28;20126;-74
2021/11/11 01:40:36;;;;;;;78.13;40.45;;;9.50;99.90;;;;;;5111920;28;20079;-73
2021/11/11 01:43:05;;;;;;;81.60;40.58;;;9.40;99.90;;;;;;5113682;28;20040;-74
2021/11/11 01:45:37;;;;;;;70.22;40.28;;;9.40;99.90;;;;;;5114580;28;20085;-74
2021/11/11 01:48:05;;;;;;;72.75;39.08;;;9.40;99.90;;;;;;5117612;28;20130;-73
2021/11/11 01:50:32;;;;;;;69.93;37.67;;;9.40;99.90;;;;;;5117285;28;20079;-74
2021/11/11 01:52:59;;;;;;;68.70;36.75;;;9.40;99.90;;;;;;5116995;28;20058;-74
2021/11/11 01:55:25;;;;;;;78.15;37.95;;;9.50;99.90;;;;;;5117365;28;20047;-74
2021/11/11 01:57:51;;;;;;;71.40;38.03;;;9.40;99.90;;;;;;5116035;28;20047;-74
2021/11/11 02:00:33;;;;;;;66.63;37.45;;;9.40;99.90;;;;;;5115807;28;20036;-73
2021/11/11 02:03:02;;;;;;;65.97;35.03;;;9.40;99.90;;;;;;5117762;28;20071;-74
2021/11/11 02:05:29;;;;;;;76.25;37.63;;;9.50;99.90;;;;;;5117758;28;20047;-74
2021/11/11 02:07:55;;;;;;;63.25;35.10;;;9.50;99.90;;;;;;5115909;28;20040;-74
2021/11/11 02:10:24;;;;;;;64.05;35.13;;;9.40;99.90;;;;;;5115653;28;20036;-74
2021/11/11 02:12:50;;;;;;;63.10;35.08;;;9.40;99.90;;;;;;5116320;28;20040;-74
2021/11/11 02:15:17;;;;;;;61.28;34.72;;;9.40;99.90;;;;;;5117127;28;20092;-74
2021/11/11 02:17:43;;;;;;;69.80;36.00;;;9.40;99.90;;;;;;5117009;28;20048;-74
2021/11/11 02:20:13;;;;;;;67.18;34.67;;;9.40;99.90;;;;;;5116876;28;20058;-74
2021/11/11 02:22:40;;;;;;;68.28;35.13;;;9.40;99.90;;;;;;5117727;28;20043;-75
2021/11/11 02:25:15;;;;;;;73.07;35.40;;;9.40;99.90;;;;;;5117087;28;20066;-73
2021/11/11 02:27:42;;;;;;;69.55;36.40;;;9.40;99.90;;;;;;5117202;28;20040;-74
2021/11/11 02:30:11;;;;;;;70.88;35.58;;;9.40;99.90;;;;;;5116618;28;20042;-74
2021/11/11 02:32:37;;;;;;;66.40;33.03;;;9.40;99.90;;;;;;5117004;27;20043;-73
2021/11/11 02:35:07;;;;;;;70.93;35.35;;;9.40;99.90;;;;;;5115647;28;20040;-73
2021/11/11 02:37:34;;;;;;;66.13;35.20;;;9.40;99.90;;;;;;5116747;28;20035;-73
2021/11/11 02:40:04;;;;;;;62.90;34.70;;;9.40;99.90;;;;;;5116414;28;20388;-74
2021/11/11 02:42:30;;;;;;;67.65;35.88;;;9.40;99.90;;;;;;5115417;28;20051;-73
2021/11/11 02:45:00;;;;;;;74.97;37.40;;;9.40;99.90;;;;;;5116642;28;20031;-73
2021/11/11 02:47:26;;;;;;;71.40;37.50;;;9.40;99.90;;;;;;5116507;28;20035;-74
2021/11/11 02:49:52;;;;;;;74.78;36.40;;;9.40;99.90;;;;;;5116306;28;20510;-74
2021/11/11 02:52:18;;;;;;;72.72;35.78;;;9.40;99.90;;;;;;5116641;28;20415;-74
2021/11/11 02:54:43;;;;;;;71.43;36.33;;;9.40;99.90;;;;;;5116485;28;20038;-74
2021/11/11 02:57:31;;;;;;;62.83;35.10;;;9.40;99.90;;;;;;5115904;28;20496;-74
2021/11/11 03:00:00;;;;;;;69.90;36.90;;;9.40;99.90;;;;;;5115630;28;20520;-74
2021/11/11 03:02:38;;;;;;;71.85;38.40;;;9.40;99.90;;;;;;5116122;28;20039;-74
2021/11/11 03:05:05;;;;;;;65.10;37.03;;;9.40;99.90;;;;;;5114882;28;20127;-74
2021/11/11 03:07:30;;;;;;;68.60;39.10;;;9.40;99.90;;;;;;5114769;28;20507;-74
2021/11/11 03:09:56;;;;;;;72.88;39.55;;;9.40;99.90;;;;;;5115724;28;20122;-74
2021/11/11 03:12:23;;;;;;;62.75;35.95;;;9.40;99.90;;;;;;5115886;28;20035;-73
2021/11/11 03:14:52;;;;;;;71.43;39.22;;;9.40;99.90;;;;;;5115929;28;20055;-74
2021/11/11 03:17:18;;;;;;;70.20;38.17;;;9.40;99.90;;;;;;5115924;28;20492;-74
2021/11/11 03:19:44;;;;;;;71.13;38.75;;;9.40;99.90;;;;;;5115334;28;20042;-73
2021/11/11 03:22:15;;;;;;;74.15;37.88;;;9.40;99.90;;;;;;5115015;28;20108;-74
2021/11/11 03:24:41;;;;;;;63.78;37.17;;;9.40;99.90;;;;;;5116379;28;20086;-74
2021/11/11 03:27:09;;;;;;;65.40;35.85;;;9.40;99.90;;;;;;5116289;28;20498;-74
2021/11/11 03:29:34;;;;;;;69.90;36.72;;;9.40;99.90;;;;;;5115296;28;20039;-74
2021/11/11 03:32:01;;;;;;;72.43;37.65;;;9.40;99.90;;;;;;5116066;28;20039;-74
2021/11/11 03:34:26;;;;;;;69.25;38.15;;;9.40;99.90;;;;;;5115727;28;20487;-74
2021/11/11 03:36:54;;;;;;;77.75;40.22;;;9.40;99.90;;;;;;5097605;28;20051;-74
2021/11/11 03:39:22;;;;;;;70.07;38.42;;;9.40;99.90;;;;;;5114161;28;20137;-74
2021/11/11 03:41:49;;;;;;;74.47;39.40;;;9.40;99.90;;;;;;5115700;28;20050;-74
2021/11/11 03:44:18;;;;;;;69.03;38.25;;;9.40;99.90;;;;;;5115282;28;20039;-74
2021/11/11 03:46:45;;;;;;;72.82;39.53;;;9.40;99.90;;;;;;5115335;28;20096;-74
2021/11/11 03:49:10;;;;;;;70.88;37.38;;;9.40;99.90;;;;;;5115049;28;20039;-74
2021/11/11 03:51:36;;;;;;;73.45;39.60;;;9.40;99.90;;;;;;5115305;28;20035;-75
2021/11/11 03:54:03;;;;;;;67.45;37.63;;;9.40;99.90;;;;;;5115654;28;20035;-73
2021/11/11 03:56:28;;;;;;;73.15;37.20;;;9.40;99.90;;;;;;5115160;28;20047;-74
2021/11/11 03:58:54;;;;;;;81.20;40.45;;;9.40;99.90;;;;;;5113522;28;20039;-74
2021/11/11 04:01:19;;;;;;;75.68;40.47;;;9.50;99.90;;;;;;5097050;28;20043;-73
2021/11/11 04:03:45;;;;;;;79.43;42.22;;;9.40;99.90;;;;;;5113557;28;20081;-74
2021/11/11 04:06:11;;;;;;;78.70;39.25;;;9.40;99.90;;;;;;5115109;28;20031;-73
2021/11/11 04:08:36;;;;;;;74.20;39.65;;;9.40;99.90;;;;;;5113598;28;20369;-74
2021/11/11 04:11:03;;;;;;;90.80;41.83;;;9.40;99.90;;;;;;5115056;28;20046;-74
2021/11/11 04:13:28;;;;;;;82.00;42.63;;;9.50;99.90;;;;;;5113281;28;20047;-74
2021/11/11 04:15:55;;;;;;;90.40;46.08;;;9.50;99.90;;;;;;5114707;28;20042;-74
2021/11/11 04:18:21;;;;;;;89.40;44.65;;;9.40;99.90;;;;;;5114636;28;20085;-75
2021/11/11 04:20:47;;;;;;;103.15;48.88;;;9.40;99.90;;;;;;5114598;28;20560;-74
2021/11/11 04:23:13;;;;;;;97.50;46.58;;;9.40;99.90;;;;;;5114660;28;20510;-74
2021/11/11 04:25:48;;;;;;;96.13;46.30;;;9.50;99.90;;;;;;5114751;28;20040;-74
2021/11/11 04:28:21;;;;;;;101.32;49.67;;;9.50;99.90;;;;;;5114597;27;20039;-74
2021/11/11 04:30:50;;;;;;;86.45;45.33;;;9.50;99.90;;;;;;5114706;28;20040;-74
2021/11/11 04:33:16;;;;;;;93.10;47.92;;;9.50;99.90;;;;;;5114295;28;20038;-74
2021/11/11 04:35:47;;;;;;;90.75;47.40;;;9.50;99.90;;;;;;5114270;28;20506;-74
2021/11/11 04:38:32;;;;;;;85.85;46.83;;;9.40;99.90;;;;;;5114607;28;20152;-74
2021/11/11 04:44:14;;;;;;;89.43;48.40;;;9.40;99.90;;;;;;5114545;28;20040;-73
2021/11/11 04:49:21;;;;;;;101.20;52.00;;;9.40;99.90;;;;;;5112770;28;20391;-73
2021/11/11 05:03:03;;;;;;;101.50;54.63;;;9.50;99.90;;;;;;5059299;28;20127;-74
2021/11/11 05:05:30;;;;;;;109.35;57.08;;;9.50;99.90;;;;;;5113960;28;20077;-74
2021/11/11 05:07:58;;;;;;;109.63;55.83;;;9.50;99.90;;;;;;5114173;28;20051;-74
2021/11/11 05:10:25;;;;;;;103.43;56.22;;;9.50;99.90;;;;;;5112235;28;20480;-74
2021/11/11 05:12:51;;;;;;;114.78;59.72;;;9.50;99.90;;;;;;5112436;28;20054;-73
2021/11/11 05:15:18;;;;;;;109.82;57.03;;;9.50;99.90;;;;;;5114243;28;20031;-74
2021/11/11 05:17:45;;;;;;;108.35;57.03;;;9.50;99.90;;;;;;5113707;28;20039;-74
2021/11/11 05:20:15;;;;;;;104.85;56.63;;;9.50;99.90;;;;;;5113551;28;20036;-74
2021/11/11 05:22:42;;;;;;;102.63;54.42;;;9.50;99.90;;;;;;5113764;28;20036;-74
2021/11/11 05:25:08;;;;;;;109.82;59.42;;;9.50;99.90;;;;;;5113872;28;20031;-74
2021/11/11 05:27:36;;;;;;;99.38;55.80;;;9.50;99.90;;;;;;5113623;28;20233;-74
2021/11/11 05:30:04;;;;;;;117.20;62.35;;;9.50;99.90;;;;;;5113444;28;20039;-71
2021/11/11 05:32:31;;;;;;;114.25;62.85;;;9.50;99.90;;;;;;5113988;28;20042;-73
2021/11/11 05:34:56;;;;;;;124.05;64.05;;;9.50;99.90;;;;;;5112513;28;20373;-71
2021/11/11 05:37:22;;;;;;;131.10;69.70;;;9.60;99.90;;;;;;5113690;28;20058;-71
2021/11/11 05:39:47;;;;;;;121.07;62.67;;;9.50;99.90;;;;;;5111872;28;20039;-72
2021/11/11 05:42:13;;;;;;;140.60;68.15;;;9.60;99.90;;;;;;5113450;28;20511;-72
2021/11/11 05:44:39;;;;;;;124.35;67.82;;;9.50;99.90;;;;;;5112281;28;20039;-73
2021/11/11 05:47:05;;;;;;;129.55;67.15;;;9.50;99.90;;;;;;5112204;28;20118;-72
2021/11/11 05:49:31;;;;;;;134.98;69.13;;;9.50;99.90;;;;;;5113196;28;20040;-72
2021/11/11 05:51:57;;;;;;;121.45;65.88;;;9.50;99.90;;;;;;5112193;28;20047;-71
2021/11/11 05:54:23;;;;;;;135.60;67.75;;;9.50;99.90;;;;;;5113491;28;20092;-72
2021/11/11 05:56:48;;;;;;;128.10;66.78;;;9.60;99.90;;;;;;5113346;28;20046;-72
2021/11/11 05:59:14;;;;;;;156.98;72.55;;;9.60;99.90;;;;;;5111834;28;20051;-72
2021/11/11 06:01:40;;;;;;;126.97;66.07;;;9.60;99.90;;;;;;5113507;28;20035;-72
2021/11/11 06:04:05;;;;;;;125.15;65.72;;;9.60;99.90;;;;;;5112301;28;20036;-72
2021/11/11 06:06:31;;;;;;;148.90;72.55;;;9.60;99.90;;;;;;5113450;28;20040;-72
2021/11/11 06:08:57;;;;;;;137.10;69.35;;;9.60;99.90;;;;;;5113021;28;20403;-72
2021/11/11 06:11:22;;;;;;;170.40;79.22;;;9.60;99.90;;;;;;5113210;28;20043;-72
2021/11/11 06:13:49;;;;;;;152.35;72.38;;;9.60;99.90;;;;;;5111910;28;20047;-71
2021/11/11 06:16:14;;;;;;;148.48;71.60;;;9.60;99.90;;;;;;5095074;28;20047;-71
2021/11/11 06:18:40;;;;;;;124.95;67.90;;;9.60;99.90;;;;;;5112950;28;20127;-72
2021/11/11 06:21:06;;;;;;;140.82;70.15;;;9.60;99.90;;;;;;5111800;28;20115;-71
2021/11/11 06:23:33;;;;;;;139.30;69.32;;;9.50;99.90;;;;;;5113108;28;20036;-72
2021/11/11 06:25:59;;;;;;;152.75;74.97;;;9.60;99.90;;;;;;5111758;28;20031;-71
2021/11/11 06:28:25;;;;;;;140.23;69.85;;;9.60;99.90;;;;;;5113121;28;20047;-72
2021/11/11 06:30:50;;;;;;;139.60;69.20;;;9.60;99.90;;;;;;5113682;28;20043;-72
2021/11/11 06:33:16;;;;;;;145.80;71.57;;;9.60;99.90;;;;;;5116904;28;20039;-71
2021/11/11 06:35:42;;;;;;;145.10;71.78;;;9.60;99.90;;;;;;5116567;28;20071;-72
2021/11/11 06:38:08;;;;;;;132.80;67.40;;;9.60;99.90;;;;;;5116481;28;20396;-72
2021/11/11 06:40:34;;;;;;;140.27;68.65;;;9.60;99.90;;;;;;5116302;28;20040;-72
2021/11/11 06:43:02;;;;;;;119.35;63.58;;;9.60;99.90;;;;;;5115057;28;20478;-72
2021/11/11 06:45:34;;;;;;;146.82;72.30;;;9.60;99.90;;;;;;5115366;28;20027;-72
2021/11/11 06:47:59;;;;;;;138.98;66.38;;;9.70;99.90;;;;;;5116676;28;20048;-72
2021/11/11 06:50:25;;;;;;;147.90;72.75;;;9.70;99.90;;;;;;5114940;28;20118;-72
2021/11/11 06:52:51;;;;;;;140.60;69.40;;;9.70;99.90;;;;;;5116413;28;20028;-72
2021/11/11 06:55:16;;;;;;;152.07;69.97;;;9.70;99.90;;;;;;5115032;28;20531;-73
2021/11/11 06:57:42;;;;;;;117.57;60.67;;;9.70;99.90;;;;;;5116689;28;20035;-73
2021/11/11 07:00:10;;;;;;;131.38;65.90;;;9.70;99.90;;;;;;5116069;28;20426;-72
2021/11/11 07:02:36;;;;;;;135.27;65.40;;;9.70;99.90;;;;;;5116613;28;20092;-72
2021/11/11 07:05:03;;;;;;;123.82;62.20;;;9.70;99.90;;;;;;5115144;28;20440;-72
2021/11/11 07:07:29;;;;;;;122.35;62.65;;;9.70;99.90;;;;;;5115623;28;20391;-72
2021/11/11 07:09:55;;;;;;;128.52;61.92;;;9.70;99.90;;;;;;5115800;28;20131;-72
2021/11/11 07:12:20;;;;;;;147.00;65.25;;;9.70;99.90;;;;;;5116293;28;20036;-72
2021/11/11 07:14:46;;;;;;;123.97;62.20;;;9.70;99.90;;;;;;5115982;28;20100;-73
2021/11/11 07:17:12;;;;;;;136.27;63.63;;;9.70;99.90;;;;;;5115892;28;20035;-73
2021/11/11 07:19:38;;;;;;;136.50;61.38;;;9.70;99.90;;;;;;5115421;28;20476;-73
2021/11/11 07:22:05;;;;;;;123.80;61.17;;;9.70;99.90;;;;;;5115654;28;20035;-70
2021/11/11 07:24:31;;;;;;;116.57;57.50;;;9.70;99.90;;;;;;5115776;28;20503;-70
2021/11/11 07:26:58;;;;;;;130.82;64.40;;;9.70;99.90;;;;;;5115717;28;20031;-71
2021/11/11 07:29:24;;;;;;;140.63;66.40;;;9.70;99.90;;;;;;5115348;28;20051;-71
2021/11/11 07:31:54;;;;;;;139.90;64.13;;;9.70;99.90;;;;;;5114455;28;20059;-71
2021/11/11 07:34:24;;;;;;;128.25;58.95;;;9.70;99.90;;;;;;5115728;28;20139;-71
2021/11/11 07:36:53;;;;;;;134.68;60.78;;;9.80;99.90;;;;;;5114304;28;20043;-71
2021/11/11 07:39:19;;;;;;;129.88;61.97;;;9.80;99.90;;;;;;5115315;28;20500;-72
2021/11/11 07:41:46;;;;;;;146.55;64.97;;;9.80;99.90;;;;;;5113992;28;20040;-71
2021/11/11 07:44:12;;;;;;;144.48;62.92;;;9.80;99.90;;;;;;5115558;28;20235;-71
2021/11/11 07:46:40;;;;;;;151.98;66.63;;;9.80;99.90;;;;;;5114262;28;20031;-70
2021/11/11 07:49:06;;;;;;;138.80;65.75;;;9.80;99.90;;;;;;5113942;28;20125;-72
2021/11/11 07:51:32;;;;;;;144.75;68.00;;;9.80;99.90;;;;;;5115817;28;20082;-71
2021/11/11 07:54:00;;;;;;;154.15;69.60;;;9.80;99.90;;;;;;5115153;27;20036;-72
2021/11/11 07:56:26;;;;;;;149.52;69.82;;;9.80;99.90;;;;;;5115476;28;20084;-71
2021/11/11 07:58:52;;;;;;;138.93;66.88;;;9.80;99.90;;;;;;5113570;28;20043;-72
2021/11/11 08:01:18;;;;;;;142.75;68.53;;;9.80;99.90;;;;;;5115439;28;20039;-71
2021/11/11 08:03:44;;;;;;;166.05;72.38;;;9.80;99.90;;;;;;5113608;28;20160;-71
2021/11/11 08:06:10;;;;;;;133.52;67.93;;;9.80;99.90;;;;;;5114055;28;20077;-71
2021/11/11 08:08:36;;;;;;;152.98;70.80;;;9.80;99.90;;;;;;5113395;28;20054;-72
2021/11/11 08:11:01;;;;;;;133.55;68.88;;;9.80;99.90;;;;;;5114620;28;20032;-71
2021/11/11 08:13:27;;;;;;;139.45;68.28;;;9.90;99.90;;;;;;5114805;28;20042;-71
2021/11/11 08:15:53;;;;;;;147.38;69.70;;;9.90;99.90;;;;;;5114762;28;20119;-71
2021/11/11 08:18:19;;;;;;;153.35;69.32;;;9.90;99.90;;;;;;5113382;28;20120;-71
2021/11/11 08:20:48;;;;;;;145.80;68.10;;;9.90;99.90;;;;;;5113193;28;20050;-72
2021/11/11 08:23:14;;;;;;;140.25;67.40;;;9.90;99.90;;;;;;5114443;28;20043;-71
2021/11/11 08:25:40;;;;;;;168.98;70.82;;;9.90;99.90;;;;;;5096235;28;20040;-71
2021/11/11 08:28:06;;;;;;;158.25;70.32;;;9.90;99.90;;;;;;5113301;28;20122;-71
2021/11/11 08:30:31;;;;;;;145.23;69.63;;;9.90;99.90;;;;;;5114557;28;20082;-71
2021/11/11 08:32:57;;;;;;;151.70;68.65;;;9.90;99.90;;;;;;5114486;28;20115;-72
2021/11/11 08:35:25;;;;;;;158.27;71.45;;;9.90;99.90;;;;;;5114379;28;20043;-72
2021/11/11 08:37:53;;;;;;;147.85;66.97;;;9.90;99.90;;;;;;5114173;28;20044;-72
2021/11/11 08:40:20;;;;;;;153.30;69.90;;;9.90;99.90;;;;;;5113963;28;20036;-72
2021/11/11 08:42:48;;;;;;;162.80;69.65;;;10.00;99.90;;;;;;5113807;28;20039;-71
2021/11/11 08:45:14;;;;;;;157.20;69.22;;;10.00;99.90;;;;;;5113006;28;20442;-72
2021/11/11 08:47:40;;;;;;;141.85;67.03;;;10.00;99.90;;;;;;5114207;28;20092;-71
2021/11/11 08:50:07;;;;;;;148.48;66.93;;;10.00;99.90;;;;;;5113634;28;20035;-71
2021/11/11 08:52:35;;;;;;;156.50;71.60;;;10.00;99.90;;;;;;5114244;28;20104;-72
2021/11/11 08:55:00;;;;;;;148.18;67.55;;;10.00;99.90;;;;;;5113732;28;20114;-71
2021/11/11 08:57:26;;;;;;;154.13;68.50;;;10.00;99.90;;;;;;5095836;28;20115;-72
2021/11/11 08:59:54;;;;;;;161.02;69.43;;;10.00;99.90;;;;;;5112325;28;20118;-71
2021/11/11 09:02:20;;;;;;;156.23;67.65;;;10.00;99.90;;;;;;5112965;28;20043;-72
2021/11/11 09:04:49;;;;;;;145.13;65.78;;;10.00;99.90;;;;;;5114154;28;20076;-71
2021/11/11 09:07:14;;;;;;;152.32;67.32;;;10.10;99.90;;;;;;5113869;28;20050;-71
2021/11/11 09:09:43;;;;;;;163.68;69.97;;;10.10;99.90;;;;;;5113891;28;20035;-72
2021/11/11 09:12:09;;;;;;;164.55;69.80;;;10.10;99.90;;;;;;5113726;28;20038;-72
2021/11/11 09:14:34;;;;;;;166.15;69.07;;;10.20;99.90;;;;;;5114160;28;20116;-72
2021/11/11 09:17:00;;;;;;;156.45;66.93;;;10.20;99.90;;;;;;5112464;28;20543;-72
2021/11/11 09:19:26;;;;;;;165.20;68.70;;;10.20;99.90;;;;;;5112237;28;20040;-72
2021/11/11 09:21:51;;;;;;;166.88;69.80;;;10.20;99.90;;;;;;5113075;28;20039;-72
2021/11/11 09:24:17;;;;;;;153.50;67.05;;;10.30;99.90;;;;;;5113763;28;20475;-71
2021/11/11 09:26:43;;;;;;;168.23;69.65;;;10.20;99.90;;;;;;5112468;28;20042;-72
2021/11/11 09:29:09;;;;;;;158.75;71.10;;;10.20;99.90;;;;;;5113433;28;20032;-72
2021/11/11 09:31:37;;;;;;;154.13;69.43;;;10.20;99.90;;;;;;5112325;28;20039;-71
2021/11/11 09:34:04;;;;;;;152.82;67.60;;;10.30;99.90;;;;;;5112307;28;20051;-71
2021/11/11 09:36:30;;;;;;;151.43;65.20;;;10.30;99.90;;;;;;5113908;28;20036;-71
2021/11/11 09:38:57;;;;;;;145.68;65.20;;;10.30;99.90;;;;;;5113528;28;20429;-71
2021/11/11 09:41:23;;;;;;;157.02;66.05;;;10.30;99.90;;;;;;5113787;28;20035;-71
2021/11/11 09:43:50;;;;;;;140.55;64.65;;;10.30;99.90;;;;;;5113796;28;20119;-70
2021/11/11 09:46:20;;;;;;;144.35;64.70;;;10.30;99.90;;;;;;5113908;28;20081;-71
2021/11/11 09:48:46;;;;;;;144.65;64.20;;;10.30;99.90;;;;;;5113182;28;20078;-71
2021/11/11 09:51:22;;;;;;;145.55;62.63;;;10.30;99.90;;;;;;5113523;28;20118;-71
2021/11/11 09:53:56;;;;;;;139.63;62.67;;;10.40;99.90;;;;;;5112330;28;20462;-72
2021/11/11 09:59:05;;;;;;;144.48;65.20;;;10.40;99.90;;;;;;5111608;28;20079;-71
2021/11/11 10:01:32;;;;;;;133.77;63.75;;;10.40;99.90;;;;;;5113425;28;20081;-71
2021/11/11 10:03:57;;;;;;;154.43;68.93;;;10.50;99.90;;;;;;5113140;28;20035;-71
2021/11/11 10:06:25;;;;;;;161.98;68.22;;;10.50;99.90;;;;;;5114191;28;20510;-71
2021/11/11 10:08:57;;;;;;;142.25;62.25;;;10.50;99.90;;;;;;5115681;28;20051;-71
2021/11/11 10:11:36;;;;;;;144.00;65.32;;;10.60;99.90;;;;;;5117270;28;20122;-71
2021/11/11 10:14:10;;;;;;;149.75;64.47;;;10.60;99.90;;;;;;5117035;28;20071;-71
2021/11/11 10:16:41;;;;;;;143.02;63.50;;;10.70;99.90;;;;;;5117263;28;20040;-71
2021/11/11 10:19:08;;;;;;;148.10;65.30;;;10.70;99.90;;;;;;5116661;28;20483;-71
2021/11/11 10:21:52;;;;;;;144.25;64.70;;;10.60;99.90;;;;;;5116800;28;20388;-72
2021/11/11 10:24:44;;;;;;;148.05;66.00;;;10.70;99.90;;;;;;5117282;28;20119;-70
2021/11/11 10:27:36;;;;;;;135.95;63.05;;;10.70;99.90;;;;;;5117595;28;20035;-71
2021/11/11 10:30:14;;;;;;;142.50;63.70;;;10.70;99.90;;;;;;5116729;27;20047;-71
2021/11/11 10:32:47;;;;;;;140.18;64.97;;;10.70;99.90;;;;;;5116681;28;20092;-71
2021/11/11 10:35:21;;;;;;;128.73;64.38;;;10.80;99.90;;;;;;5115439;28;20054;-71
2021/11/11 10:37:46;;;;;;;;;;;10.80;99.90;;;;;;5115992;28;20521;-71
2021/11/11 10:40:40;;;;;;;140.23;62.42;;;10.70;99.90;;;;;;5116017;28;19974;-71
2021/11/11 10:43:11;;;;;;;138.63;58.55;;;10.70;99.90;;;;;;5105326;28;20052;-70
2021/11/11 10:45:47;;;;;;;127.72;59.08;;;10.70;99.90;;;;;;5116777;28;20050;-70
2021/11/11 10:48:17;;;;;;;131.15;60.28;;;10.80;99.90;;;;;;5116536;28;20039;-71
2021/11/11 10:50:51;;;;;;;132.70;62.83;;;10.80;99.90;;;;;;5116461;28;20038;-70
2021/11/11 10:53:23;;;;;;;128.68;61.75;;;10.80;99.90;;;;;;5115127;28;20512;-71
2021/11/11 10:55:55;;;;;;;138.55;64.25;;;10.80;99.90;;;;;;5116517;28;20032;-70
2021/11/11 10:58:33;;;;;;;128.57;59.85;;;10.90;99.90;;;;;;5114973;28;20561;-71
2021/11/11 11:01:06;;;;;;;142.35;63.40;;;10.90;99.90;;;;;;5097875;28;20044;-71
2021/11/11 11:03:37;;;;;;;130.50;62.00;;;11.00;99.90;;;;;;5116139;28;20372;-70
2021/11/11 11:06:16;;;;;;;137.68;63.00;;;11.00;99.90;;;;;;5115307;28;20050;-71
2021/11/11 11:09:02;;;;;;;142.93;62.72;;;11.00;99.90;;;;;;5116131;28;20046;-70
2021/11/11 11:11:31;;;;;;;128.95;59.95;;;11.00;99.90;;;;;;5114978;28;20047;-71
2021/11/11 11:14:00;;;;;;;127.22;61.97;;;11.00;99.90;;;;;;5116143;28;20040;-71
2021/11/11 11:16:34;;;;;;;126.35;61.88;;;11.10;99.90;;;;;;5115669;28;20044;-71
2021/11/11 11:19:08;;;;;;;;;;;11.10;99.90;;;;;;5114753;28;20040;-70
2021/11/11 11:21:40;;;;;;;136.55;61.25;;;11.00;99.90;;;;;;5114545;28;19919;-71
2021/11/11 11:24:18;;;;;;;132.07;60.92;;;11.00;99.90;;;;;;5114706;28;20111;-71
2021/11/11 11:27:05;;;;;;;121.38;57.47;;;11.10;99.90;;;;;;5115944;28;20090;-70
2021/11/11 11:29:57;;;;;;;125.50;58.22;;;11.00;99.90;;;;;;5115463;28;20031;-70
2021/11/11 11:32:30;;;;;;;126.97;60.47;;;11.00;99.90;;;;;;5115711;28;20035;-71
2021/11/11 11:35:01;;;;;;;119.57;57.55;;;11.10;99.90;;;;;;5114288;28;20044;-71
2021/11/11 11:37:32;;;;;;;122.95;56.70;;;11.20;99.90;;;;;;5115381;28;20043;-69
2021/11/11 11:40:14;;;;;;;117.25;57.45;;;11.20;99.90;;;;;;5115917;27;20040;-70
2021/11/11 11:42:46;;;;;;;124.30;57.75;;;11.20;99.90;;;;;;5117544;28;20071;-70
2021/11/11 11:45:18;;;;;;;107.47;53.03;;;11.30;99.90;;;;;;5117434;28;20115;-70
2021/11/11 11:47:56;;;;;;;116.50;53.85;;;11.30;99.90;;;;;;5116366;28;20044;-70
2021/11/11 11:50:27;;;;;;;111.00;52.80;;;11.30;99.90;;;;;;5115120;28;20074;-70
2021/11/11 11:53:00;;;;;;;108.82;51.20;;;11.30;99.90;;;;;;5113950;28;20551;-70
2021/11/11 11:55:35;;;;;;;114.53;52.15;;;11.30;99.90;;;;;;5113955;28;20050;-70
2021/11/11 11:58:21;;;;;;;111.32;50.47;;;11.30;99.90;;;;;;5115049;28;20491;-70
2021/11/11 12:08:38;;;;;;;101.53;48.55;;;11.30;99.90;;;;;;5113664;28;20479;-71
2021/11/11 12:11:38;;;;;;;99.78;48.50;;;11.30;99.90;;;;;;5114776;28;20047;-70
2021/11/11 12:39:53;;;;;;;90.45;43.72;;;11.60;99.90;;;;;;5113190;28;20051;-70
2021/11/11 12:42:34;;;;;;;84.38;39.30;;;11.70;99.90;;;;;;5114340;28;20144;-70
2021/11/11 12:45:13;;;;;;;79.13;39.13;;;11.70;99.90;;;;;;5112965;28;20048;-71
2021/11/11 12:47:42;;;;;;;71.38;37.42;;;11.80;99.90;;;;;;5112834;28;20062;-71
2021/11/11 12:50:33;;;;;;;66.22;34.78;;;11.90;99.90;;;;;;5113896;28;20122;-71
2021/11/11 12:53:11;;;;;;;67.57;36.88;;;11.90;99.90;;;;;;5114003;28;20050;-71
2021/11/11 12:56:10;;;;;;;70.15;35.25;;;12.00;99.90;;;;;;5105446;28;20050;-71
2021/11/11 12:58:43;;;;;;;60.60;32.55;;;12.00;99.90;;;;;;5112279;28;20124;-70
2021/11/11 13:01:16;;;;;;;60.50;34.40;;;12.10;99.90;;;;;;5113605;27;20048;-71
2021/11/11 13:04:02;;;;;;;56.55;30.92;;;12.10;99.90;;;;;;5112255;28;20043;-70
2021/11/11 13:06:46;;;;;;;53.60;30.60;;;12.10;99.90;;;;;;5113925;28;20092;-71
2021/11/11 13:09:19;;;;;;;47.95;27.50;;;12.10;99.90;;;;;;5113476;28;20075;-70
2021/11/11 13:11:47;;;;;;;54.45;29.15;;;12.10;99.90;;;;;;5095571;28;20445;-71
2021/11/11 13:14:20;;;;;;;52.05;28.50;;;12.10;99.90;;;;;;5112978;28;20083;-71
2021/11/11 13:16:58;;;;;;;;;;;12.20;99.90;;;;;;5112801;28;20191;-71
2021/11/11 13:19:36;;;;;;;50.33;27.55;;;12.20;99.90;;;;;;5111117;28;19924;-72
2021/11/11 13:22:12;;;;;;;45.10;27.20;;;12.20;99.90;;;;;;5112469;28;20496;-72
2021/11/11 13:25:53;;;;;;;49.30;30.38;;;12.20;99.90;;;;;;5114028;28;20387;-71
2021/11/11 15:17:15;;;;;;;93.43;54.25;;;11.80;99.90;;;;;;5115418;28;20143;-68
2021/11/11 15:20:10;;;;;;;88.28;53.00;;;11.80;99.90;;;;;;5115439;28;20048;-68